Latest Weather Observations for Mount Keith

IDW60801

Issued at 7:33 am WST Saturday 29 April 2017 (issued every 30 minutes, with the page automatically refreshed every 10 minutes)

About weather observations | Map of weather stations | Latest weather observations for WA | Other Formats
Station Details ID: 512019 Name: MOUNT KEITH Lat: -27.29 Lon: 120.55 Height: 542.33 m
Data from the previous 72 hours. | See also: Recent months for locations in Western Australia
Date/Time
WST
Temp
°C
App
Temp
°C
Dew
Point
°C
Rel
Hum
%
Delta-T
°C
Wind Press
QNH
hPa
Press
MSL
hPa
Rain since
9am
mm
Dir  Spd
km/h
Gust
km/h
Spd
kts
Gust
kts
29/07:30am 12.8 10.0 7.0 68 2.9 E 11 15 6 8 1023.5 1020.9 0.0
29/07:00am 10.9 8.9 7.0 77 1.9 SE 7 11 4 6 1023.5 1020.9 0.0
29/06:30am 9.7 7.6 6.8 82 1.4 SE 7 9 4 5 1023.4 1020.8 0.0
29/06:00am 10.0 7.6 6.9 81 1.5 SE 9 9 5 5 1023.2 1020.6 0.0
29/05:30am 10.1 8.0 6.8 80 1.6 SE 7 9 4 5 1023.1 1020.4 0.0
29/05:00am 10.6 8.6 7.3 80 1.6 SSE 7 9 4 5 1023.1 1020.4 0.0
29/04:30am 10.8 8.9 7.5 80 1.6 SSE 7 9 4 5 1022.7 1020.1 0.0
29/04:00am 10.9 9.3 8.0 82 1.4 E 6 7 3 4 1022.6 1020.0 0.0
29/03:30am 11.2 9.3 7.5 78 1.8 ESE 7 9 4 5 1022.4 1019.8 0.0
29/03:00am 11.7 9.7 7.2 74 2.2 ESE 7 9 4 5 1022.3 1019.7 0.0
29/02:30am 12.2 9.9 7.3 72 2.4 ESE 9 11 5 6 1022.3 1019.7 0.0
29/02:00am 12.6 9.9 7.5 71 2.5 ESE 11 13 6 7 1022.4 1019.8 0.0
29/01:30am 12.5 10.4 8.2 75 2.2 SE 9 11 5 6 1022.5 1019.9 0.0
29/01:00am 12.9 11.2 8.4 74 2.3 SSE 7 9 4 5 1022.6 1020.0 0.0
29/12:30am 13.1 11.4 8.2 72 2.5 SE 7 9 4 5 1022.8 1020.2 0.0
29/12:00am 13.6 11.9 8.2 70 2.8 SE 7 9 4 5 1023.0 1020.3 0.0
 
Date/Time
WST
Temp
°C
App
Temp
°C
Dew
Point
°C
Rel
Hum
%
Delta-T
°C
Wind Press
QNH
hPa
Press
MSL
hPa
Rain since
9am
mm
Dir  Spd
km/h
Gust
km/h
Spd
kts
Gust
kts
28/11:30pm 14.5 12.3 7.8 64 3.4 SE 9 11 5 6 1023.0 1020.3 0.0
28/11:00pm 14.9 12.3 7.7 62 3.7 SE 11 17 6 9 1023.0 1020.3 0.0
28/10:30pm 14.6 12.4 7.9 64 3.4 SSE 9 11 5 6 1023.3 1020.7 0.0
28/10:00pm 15.1 12.8 7.6 61 3.8 SSE 9 9 5 5 1023.6 1021.0 0.0
28/09:30pm 15.4 13.1 7.4 59 4.1 SSE 9 13 5 7 1023.6 1021.0 0.0
28/09:00pm 15.8 13.4 7.1 56 4.4 SSE 9 11 5 6 1023.5 1020.9 0.0
28/08:30pm 15.8 13.5 7.6 58 4.2 SSE 9 11 5 6 1023.5 1020.9 0.0
28/08:00pm 16.0 13.6 7.2 56 4.5 SSE 9 11 5 6 1023.4 1020.8 0.0
28/07:30pm 16.1 13.8 7.6 57 4.4 SSE 9 11 5 6 1023.4 1020.8 0.0
28/07:00pm 17.1 14.7 7.2 52 5.1 SSE 9 11 5 6 1023.2 1020.6 0.0
28/06:30pm 17.9 15.0 6.4 47 5.8 SSE 11 11 6 6 1023.0 1020.3 0.0
28/06:00pm 18.6 16.1 6.4 45 6.2 SE 9 11 5 6 1022.6 1020.0 0.0
28/05:30pm 19.7 16.1 5.0 38 7.4 ESE 13 17 7 9 1022.4 1019.8 0.0
28/05:00pm 21.1 16.7 4.6 34 8.2 ESE 17 20 9 11 1022.1 1019.5 0.0
28/04:30pm 21.6 17.6 5.1 34 8.4 ESE 15 19 8 10 1021.9 1019.3 0.0
28/04:00pm 22.1 19.0 5.5 34 8.5 ESE 11 17 6 9 1022.0 1019.4 0.0
28/03:30pm 21.9 17.9 4.9 33 8.6 ESE 15 22 8 12 1022.0 1019.4 0.0
28/03:00pm 22.3 18.6 6.1 35 8.4 E 15 22 8 12 1021.9 1019.3 0.0
28/02:30pm 21.8 18.2 4.8 33 8.6 ESE 13 19 7 10 1022.1 1019.5 0.0
28/02:00pm 21.7 18.2 5.6 35 8.2 ESE 13 20 7 11 1022.0 1019.4 0.0
28/01:30pm 21.6 17.6 4.7 33 8.5 SE 15 24 8 13 1022.1 1019.5 0.0
28/01:00pm 21.3 16.5 4.8 34 8.3 ESE 19 24 10 13 1022.4 1019.8 0.0
28/12:30pm 21.2 16.5 5.1 35 8.2 SSE 19 35 10 19 1023.0 1020.3 0.0
28/12:00pm 20.8 17.3 5.6 37 7.7 ENE 13 20 7 11 1023.5 1020.9 0.0
28/11:30am 20.2 17.1 5.4 38 7.5 ENE 11 24 6 13 1024.1 1021.5 0.0
28/11:00am 19.4 15.1 5.1 39 7.1 ENE 17 20 9 11 1024.5 1021.9 0.0
28/10:30am 19.1 14.5 5.6 41 6.8 NE 19 26 10 14 1024.9 1022.3 0.0
28/10:00am 18.5 13.9 6.7 46 6.0 ENE 20 26 11 14 1025.2 1022.6 0.0
28/09:30am 18.4 14.5 7.2 48 5.8 ENE 17 24 9 13 1025.4 1022.8 0.0
28/09:00am 17.4 13.5 6.9 50 5.3 ENE 17 24 9 13 1025.4 1022.8 0.0
28/08:30am 15.8 11.8 6.8 55 4.5 ENE 17 24 9 13 1025.4 1022.8 0.0
28/08:00am 15.2 12.2 7.5 60 3.9 E 13 19 7 10 1025.4 1022.8 0.0
28/07:30am 13.5 11.4 8.4 71 2.6 ESE 9 13 5 7 1025.2 1022.6 0.0
28/07:00am 11.3 10.9 8.2 81 1.6 CALM 0 6 0 3 1025.1 1022.5 0.0
28/06:30am 10.1 8.2 7.7 85 1.2 ESE 7 7 4 4 1024.6 1022.0 0.0
28/06:00am 10.9 9.0 7.6 80 1.6 ESE 7 9 4 5 1024.5 1021.9 0.0
28/05:30am 10.6 10.1 7.7 82 1.4 CALM 0 7 0 4 1024.2 1021.6 0.0
28/05:00am 11.0 9.3 7.7 80 1.6 ESE 6 7 3 4 1024.2 1021.6 0.0
28/04:30am 11.6 9.7 7.5 76 2.0 ESE 7 9 4 5 1023.9 1021.3 0.0
28/04:00am 12.2 9.9 7.3 72 2.4 ESE 9 11 5 6 1024.0 1021.4 0.0
28/03:30am 13.1 10.4 7.5 69 2.8 ESE 11 15 6 8 1023.9 1021.3 0.0
28/03:00am 13.4 10.7 7.4 67 3.0 ESE 11 15 6 8 1023.9 1021.3 0.0
28/02:30am 14.1 11.0 7.4 64 3.4 ESE 13 17 7 9 1024.0 1021.4 0.0
28/02:00am 14.1 11.5 7.6 65 3.3 SE 11 15 6 8 1024.0 1021.4 0.0
28/01:30am 14.1 11.5 7.6 65 3.3 ESE 11 15 6 8 1024.2 1021.6 0.0
28/01:00am 14.2 11.5 7.5 64 3.4 ESE 11 15 6 8 1024.4 1021.8 0.0
28/12:30am 14.3 11.7 7.6 64 3.4 SE 11 15 6 8 1024.3 1021.7 0.0
28/12:00am 14.2 11.9 7.3 63 3.5 SE 9 11 5 6 1024.4 1021.8 0.0
 
Date/Time
WST
Temp
°C
App
Temp
°C
Dew
Point
°C
Rel
Hum
%
Delta-T
°C
Wind Press
QNH
hPa
Press
MSL
hPa
Rain since
9am
mm
Dir  Spd
km/h
Gust
km/h
Spd
kts
Gust
kts
27/11:30pm 14.6 12.3 7.4 62 3.7 SE 9 13 5 7 1024.5 1021.9 0.0
27/11:00pm 15.1 12.2 6.7 57 4.2 SE 11 20 6 11 1024.4 1021.8 0.0
27/10:30pm 14.9 11.4 7.2 60 3.9 SE 15 19 8 10 1024.3 1021.7 0.0
27/10:00pm 14.7 12.2 8.0 64 3.4 SE 11 15 6 8 1024.6 1022.0 0.0
27/09:30pm 14.7 12.2 8.2 65 3.4 SE 11 13 6 7 1024.9 1022.3 0.0
27/09:00pm 15.2 12.7 8.2 63 3.6 SE 11 15 6 8 1024.9 1022.3 0.0
27/08:30pm 15.8 13.4 8.5 62 3.8 SE 11 15 6 8 1024.9 1022.3 0.0
27/08:00pm 16.1 13.2 8.3 60 4.0 ESE 13 15 7 8 1024.9 1022.3 0.0
27/07:30pm 16.5 13.6 8.2 58 4.3 ESE 13 17 7 9 1024.6 1022.0 0.0
27/07:00pm 16.4 14.1 8.9 61 3.9 SE 11 13 6 7 1024.5 1021.9 0.0
27/06:30pm 16.5 14.1 8.7 60 4.1 ESE 11 13 6 7 1024.3 1021.7 0.0
27/06:00pm 17.4 15.3 8.3 55 4.8 ESE 9 11 5 6 1024.0 1021.4 0.0
27/05:30pm 18.6 16.5 8.3 51 5.5 E 9 15 5 8 1023.8 1021.2 0.0
27/05:00pm 19.6 16.4 7.0 44 6.5 E 13 17 7 9 1023.6 1021.0 0.0
27/04:30pm 19.9 15.8 6.3 41 7.0 ESE 17 24 9 13 1023.3 1020.7 0.0
27/04:00pm 20.5 17.4 7.2 42 7.0 ESE 13 20 7 11 1023.4 1020.8 0.0
27/03:30pm 20.2 16.9 6.5 41 7.1 ESE 13 20 7 11 1023.3 1020.7 0.0
27/03:00pm 20.2 16.6 6.9 42 6.9 ESE 15 22 8 12 1023.2 1020.6 0.0
27/02:30pm 20.1 16.7 7.5 44 6.6 SE 15 20 8 11 1023.3 1020.7 0.0
27/02:00pm 20.0 16.5 7.1 43 6.7 SE 15 26 8 14 1023.5 1020.9 0.0
27/01:30pm 20.5 17.3 6.8 41 7.1 SE 13 24 7 13 1023.7 1021.1 0.0
27/01:00pm 19.9 16.6 6.6 42 6.8 SSE 13 26 7 14 1024.0 1021.4 0.0
27/12:30pm 19.7 16.2 7.4 45 6.4 ESE 15 22 8 12 1024.7 1022.1 0.0
27/12:00pm 19.9 16.7 7.0 43 6.7 E 13 24 7 13 1025.2 1022.6 0.0
27/11:30am 19.4 15.9 7.2 45 6.4 E 15 20 8 11 1025.8 1023.2 0.0
27/11:00am 18.9 14.8 8.0 49 5.7 E 19 26 10 14 1026.3 1023.7 0.0
27/10:30am 18.5 14.8 7.9 50 5.6 E 17 24 9 13 1026.6 1024.1 0.0
27/10:00am 17.8 13.7 7.8 52 5.2 E 19 26 10 14 1027.1 1024.5 0.0
27/09:30am 17.5 13.8 7.8 53 5.1 E 17 24 9 13 1027.4 1024.8 0.0
27/09:00am 16.3 12.5 7.5 56 4.5 E 17 26 9 14 1027.4 1024.8 0.0
27/08:30am 15.2 11.4 7.7 61 3.8 E 17 24 9 13 1027.3 1024.7 0.0
27/08:00am 14.1 10.8 7.9 66 3.1 ESE 15 20 8 11 1027.1 1024.5 0.0
27/07:30am 13.3 10.0 8.0 70 2.7 ESE 15 20 8 11 1026.7 1024.2 0.0
27/07:00am 12.0 10.2 7.9 76 2.1 ESE 7 11 4 6 1026.4 1023.8 0.0
27/06:30am 11.1 9.2 7.6 79 1.7 ESE 7 9 4 5 1026.2 1023.6 0.0
27/06:00am 11.6 8.6 7.5 76 2.0 E 13 17 7 9 1026.0 1023.4 0.0
27/05:30am 11.3 8.3 7.8 79 1.8 ESE 13 15 7 8 1025.9 1023.3 0.0
27/05:00am 11.0 8.5 8.1 82 1.4 ESE 11 13 6 7 1025.7 1023.1 0.0
27/04:30am 10.7 8.2 8.3 85 1.2 ESE 11 13 6 7 1025.4 1022.8 0.0
27/04:00am 10.7 8.9 8.1 84 1.3 ESE 7 9 4 5 1025.6 1023.0 0.0
27/03:30am 11.1 9.0 8.3 83 1.4 ESE 9 13 5 7 1025.4 1022.8 0.0
27/03:00am 11.4 8.9 8.3 81 1.6 ESE 11 13 6 7 1025.3 1022.7 0.0
27/02:30am 11.8 9.4 8.5 80 1.7 ESE 11 13 6 7 1025.3 1022.7 0.0
27/02:00am 12.0 9.6 8.7 80 1.7 ESE 11 13 6 7 1025.4 1022.8 0.0
27/01:30am 12.2 9.8 8.7 79 1.8 ESE 11 15 6 8 1025.4 1022.8 0.0
27/01:00am 12.8 10.5 9.1 78 1.9 ESE 11 15 6 8 1025.5 1022.9 0.0
27/12:30am 13.0 11.1 9.1 77 2.0 SE 9 13 5 7 1025.8 1023.2 0.0
27/12:00am 13.9 11.6 8.9 72 2.6 ESE 11 13 6 7 1025.8 1023.2 0.0
 
Date/Time
WST
Temp
°C
App
Temp
°C
Dew
Point
°C
Rel
Hum
%
Delta-T
°C
Wind Press
QNH
hPa
Press
MSL
hPa
Rain since
9am
mm
Dir  Spd
km/h
Gust
km/h
Spd
kts
Gust
kts
26/11:30pm 14.7 12.0 8.9 68 3.0 SE 13 15 7 8 1025.8 1023.2 0.0
26/11:00pm 15.4 11.9 8.6 64 3.5 SE 17 20 9 11 1025.8 1023.2 0.0
26/10:30pm 15.7 13.0 9.1 65 3.5 SE 13 17 7 9 1026.0 1023.4 0.0
26/10:00pm 16.0 13.3 9.0 63 3.7 ESE 13 17 7 9 1026.2 1023.6 0.0
26/09:30pm 16.4 13.7 8.9 61 4.0 SE 13 19 7 10 1026.2 1023.6 0.0
26/09:00pm 16.6 13.6 9.1 61 4.0 SE 15 20 8 11 1026.1 1023.5 0.0
26/08:30pm 16.8 14.1 9.0 60 4.1 SE 13 17 7 9 1026.0 1023.4 0.0
26/08:00pm 17.4 14.6 8.5 56 4.7 ESE 13 19 7 10 1025.8 1023.2 0.0
26/07:30pm 17.5 14.7 8.4 55 4.8 ESE 13 17 7 9 1025.6 1023.0 0.0
26/07:00pm 17.7 14.9 8.6 55 4.8 SE 13 17 7 9 1025.1 1022.5 0.0
26/06:30pm 18.3 15.5 8.6 53 5.2 SE 13 17 7 9 1024.9 1022.3 0.0
26/06:00pm 18.4 16.3 8.1 51 5.4 ESE 9 13 5 7 1024.5 1021.9 0.0
26/05:30pm 18.9 15.8 7.4 47 6.0 ESE 13 19 7 10 1024.0 1021.4 0.0
26/05:00pm 19.7 15.8 7.1 44 6.5 ESE 17 24 9 13 1023.9 1021.3 0.0
26/04:30pm 20.1 15.4 6.1 40 7.2 ESE 20 28 11 15 1023.8 1021.2 0.0
26/04:00pm 20.4 15.5 7.1 42 6.9 ESE 22 32 12 17 1023.7 1021.1 0.0
26/03:30pm 20.9 16.5 6.4 39 7.5 ESE 19 33 10 18 1023.8 1021.2 0.0
26/03:00pm 21.0 16.5 6.2 38 7.6 E 19 32 10 17 1023.7 1021.1 0.0
26/02:30pm 21.0 16.3 6.2 38 7.6 E 20 32 11 17 1023.8 1021.2 0.0
26/02:00pm 21.4 17.0 7.3 40 7.4 ESE 20 30 11 16 1024.1 1021.5 0.0
26/01:30pm 21.1 16.4 6.2 38 7.7 ESE 20 30 11 16 1024.2 1021.6 0.0
26/01:00pm 20.3 15.9 6.6 41 7.1 ESE 19 30 10 16 1024.6 1022.0 0.0
26/12:30pm 20.4 15.5 6.7 41 7.1 E 22 32 12 17 1024.9 1022.3 0.0
26/12:00pm 19.8 13.8 5.5 39 7.2 E 26 35 14 19 1025.5 1022.9 0.0
26/11:30am 19.7 14.5 5.4 39 7.2 E 22 32 12 17 1026.0 1023.4 0.0
26/11:00am 19.7 13.9 6.1 41 6.9 ENE 26 39 14 21 1026.3 1023.7 0.0
26/10:30am 19.3 13.5 6.1 42 6.7 ENE 26 35 14 19 1026.5 1024.0 0.0
26/10:00am 18.6 13.6 6.4 45 6.2 ENE 22 32 12 17 1026.9 1024.3 0.0
26/09:30am 18.4 13.3 7.8 50 5.6 ENE 24 35 13 19 1026.9 1024.3 0.0
26/09:00am 17.8 13.7 7.8 52 5.2 ENE 19 28 10 15 1027.0 1024.4 0.0
26/08:30am 16.7 12.3 7.4 54 4.8 ENE 20 28 11 15 1027.0 1024.4 0.0
26/08:00am 15.4 11.0 7.2 58 4.1 E 20 32 11 17 1026.5 1024.0 0.0

Other Formats:

Comma delimited format used in spreadsheet applications
http://www.bom.gov.au/fwo/IDW60801/IDW60801.99434.axf

JavaScript Object Notation format (JSON) in row-major order
http://www.bom.gov.au/fwo/IDW60801/IDW60801.99434.json